Avon, Ohio
Current Conditions -  °F | °C
As of 6:51 PM on Friday 24 Oct 2014 (Local Time) from KCLE Reporting Station
Overcast Overcast  
Wind Chill: 56°   Ceiling: 4200
Heat Index: 56°   Visibility: 10mi
Dew Point: 45°   Wind: 0mph
Humidity: 67%   Direction: NA
Pressure: 30.02"   Gusts: NA
Location:  41.47°N, 82.02°W
Report Text: KCLE 242251Z 00000KT 10SM OVC042 13/07 A3002 RMK AO2 SLP167 T01330072
Loading
Personal Weather Stations






























Interactive Weather Map
Tropical Storm Tracking
New forecast layout! Learn more

10-Day Weather Forecast

Advertisements
Track Severe Weather on mobile